sensor_id;sensor_type;location;lat;lon;timestamp;P1;durP1;ratioP1;P2;durP2;ratioP2
23410;SDS011;11878;51.774;7.220;2022-11-20T00:01:57;15.20;;;7.47;;
23410;SDS011;11878;51.774;7.220;2022-11-20T00:04:59;13.53;;;6.73;;
23410;SDS011;11878;51.774;7.220;2022-11-20T00:08:01;11.33;;;6.90;;
23410;SDS011;11878;51.774;7.220;2022-11-20T00:11:07;15.03;;;7.77;;
23410;SDS011;11878;51.774;7.220;2022-11-20T00:14:16;13.27;;;6.07;;
23410;SDS011;11878;51.774;7.220;2022-11-20T00:17:19;13.93;;;6.33;;
23410;SDS011;11878;51.774;7.220;2022-11-20T00:20:21;13.30;;;7.63;;
23410;SDS011;11878;51.774;7.220;2022-11-20T00:23:23;13.60;;;7.07;;
23410;SDS011;11878;51.774;7.220;2022-11-20T00:26:26;13.20;;;7.00;;
23410;SDS011;11878;51.774;7.220;2022-11-20T00:29:29;18.93;;;7.00;;
23410;SDS011;11878;51.774;7.220;2022-11-20T00:32:31;15.47;;;7.10;;
23410;SDS011;11878;51.774;7.220;2022-11-20T00:35:33;12.70;;;6.23;;
23410;SDS011;11878;51.774;7.220;2022-11-20T00:38:35;11.37;;;6.67;;
23410;SDS011;11878;51.774;7.220;2022-11-20T00:41:40;11.77;;;6.67;;
23410;SDS011;11878;51.774;7.220;2022-11-20T00:44:42;12.63;;;6.23;;
23410;SDS011;11878;51.774;7.220;2022-11-20T00:47:44;12.77;;;6.37;;
23410;SDS011;11878;51.774;7.220;2022-11-20T00:50:46;11.37;;;5.47;;
23410;SDS011;11878;51.774;7.220;2022-11-20T00:53:48;9.73;;;5.20;;
23410;SDS011;11878;51.774;7.220;2022-11-20T00:56:54;18.00;;;7.27;;
23410;SDS011;11878;51.774;7.220;2022-11-20T00:59:56;16.50;;;7.80;;
23410;SDS011;11878;51.774;7.220;2022-11-20T01:02:58;16.27;;;9.40;;
23410;SDS011;11878;51.774;7.220;2022-11-20T01:06:07;15.03;;;7.10;;
23410;SDS011;11878;51.774;7.220;2022-11-20T01:09:15;16.57;;;9.00;;
23410;SDS011;11878;51.774;7.220;2022-11-20T01:12:17;16.90;;;8.17;;
23410;SDS011;11878;51.774;7.220;2022-11-20T01:15:19;12.07;;;7.67;;
23410;SDS011;11878;51.774;7.220;2022-11-20T01:18:20;13.50;;;8.07;;
23410;SDS011;11878;51.774;7.220;2022-11-20T01:21:23;14.00;;;7.00;;
23410;SDS011;11878;51.774;7.220;2022-11-20T01:24:27;13.80;;;7.07;;
23410;SDS011;11878;51.774;7.220;2022-11-20T01:27:28;12.43;;;6.23;;
23410;SDS011;11878;51.774;7.220;2022-11-20T01:30:30;11.93;;;6.53;;
23410;SDS011;11878;51.774;7.220;2022-11-20T01:33:32;14.20;;;6.97;;
23410;SDS011;11878;51.774;7.220;2022-11-20T01:36:34;12.47;;;6.40;;
23410;SDS011;11878;51.774;7.220;2022-11-20T01:39:37;11.43;;;4.77;;
23410;SDS011;11878;51.774;7.220;2022-11-20T01:42:43;10.33;;;5.70;;
23410;SDS011;11878;51.774;7.220;2022-11-20T01:46:17;11.27;;;5.23;;
23410;SDS011;11878;51.774;7.220;2022-11-20T01:49:20;12.50;;;5.27;;
23410;SDS011;11878;51.774;7.220;2022-11-20T01:52:27;20.43;;;6.47;;
23410;SDS011;11878;51.774;7.220;2022-11-20T01:55:36;12.60;;;5.37;;
23410;SDS011;11878;51.774;7.220;2022-11-20T01:58:59;14.07;;;5.93;;
23410;SDS011;11878;51.774;7.220;2022-11-20T02:02:02;10.73;;;5.97;;
23410;SDS011;11878;51.774;7.220;2022-11-20T02:05:09;9.87;;;4.90;;
23410;SDS011;11878;51.774;7.220;2022-11-20T02:08:21;10.20;;;4.63;;
23410;SDS011;11878;51.774;7.220;2022-11-20T02:11:24;9.97;;;4.93;;
23410;SDS011;11878;51.774;7.220;2022-11-20T02:14:25;8.87;;;4.90;;
23410;SDS011;11878;51.774;7.220;2022-11-20T02:17:27;10.90;;;5.10;;
23410;SDS011;11878;51.774;7.220;2022-11-20T02:20:29;10.20;;;6.47;;
23410;SDS011;11878;51.774;7.220;2022-11-20T02:23:38;11.03;;;5.17;;
23410;SDS011;11878;51.774;7.220;2022-11-20T02:26:59;10.87;;;6.17;;
23410;SDS011;11878;51.774;7.220;2022-11-20T02:30:04;10.63;;;4.83;;
23410;SDS011;11878;51.774;7.220;2022-11-20T02:33:12;9.13;;;6.17;;
23410;SDS011;11878;51.774;7.220;2022-11-20T02:36:15;9.97;;;5.93;;
23410;SDS011;11878;51.774;7.220;2022-11-20T02:39:17;12.37;;;6.23;;
23410;SDS011;11878;51.774;7.220;2022-11-20T02:42:20;13.93;;;6.80;;
23410;SDS011;11878;51.774;7.220;2022-11-20T02:45:22;13.37;;;6.63;;
23410;SDS011;11878;51.774;7.220;2022-11-20T02:48:25;10.57;;;6.43;;
23410;SDS011;11878;51.774;7.220;2022-11-20T02:51:31;9.03;;;5.47;;
23410;SDS011;11878;51.774;7.220;2022-11-20T02:54:33;9.50;;;5.97;;
23410;SDS011;11878;51.774;7.220;2022-11-20T02:57:35;15.00;;;6.10;;
23410;SDS011;11878;51.774;7.220;2022-11-20T03:00:36;9.07;;;5.70;;
23410;SDS011;11878;51.774;7.220;2022-11-20T03:03:38;10.67;;;5.83;;
23410;SDS011;11878;51.774;7.220;2022-11-20T03:06:40;11.53;;;5.70;;
23410;SDS011;11878;51.774;7.220;2022-11-20T03:09:41;10.73;;;4.90;;
23410;SDS011;11878;51.774;7.220;2022-11-20T03:12:43;8.67;;;5.23;;
23410;SDS011;11878;51.774;7.220;2022-11-20T03:15:45;16.40;;;5.30;;
23410;SDS011;11878;51.774;7.220;2022-11-20T03:18:46;12.33;;;5.40;;
23410;SDS011;11878;51.774;7.220;2022-11-20T03:21:48;9.23;;;4.63;;
23410;SDS011;11878;51.774;7.220;2022-11-20T03:24:50;15.33;;;5.53;;
23410;SDS011;11878;51.774;7.220;2022-11-20T03:27:52;12.17;;;5.07;;
23410;SDS011;11878;51.774;7.220;2022-11-20T03:30:54;10.10;;;4.97;;
23410;SDS011;11878;51.774;7.220;2022-11-20T03:33:56;10.13;;;4.83;;
23410;SDS011;11878;51.774;7.220;2022-11-20T03:36:59;8.17;;;4.17;;
23410;SDS011;11878;51.774;7.220;2022-11-20T03:40:01;9.00;;;4.57;;
23410;SDS011;11878;51.774;7.220;2022-11-20T03:43:03;7.80;;;4.37;;
23410;SDS011;11878;51.774;7.220;2022-11-20T03:46:05;12.07;;;5.60;;
23410;SDS011;11878;51.774;7.220;2022-11-20T03:49:07;12.07;;;5.67;;
23410;SDS011;11878;51.774;7.220;2022-11-20T03:52:09;10.70;;;5.07;;
23410;SDS011;11878;51.774;7.220;2022-11-20T03:55:10;10.50;;;6.67;;
23410;SDS011;11878;51.774;7.220;2022-11-20T03:58:12;8.97;;;5.00;;
23410;SDS011;11878;51.774;7.220;2022-11-20T04:01:18;16.07;;;5.57;;
23410;SDS011;11878;51.774;7.220;2022-11-20T04:04:25;9.70;;;5.60;;
23410;SDS011;11878;51.774;7.220;2022-11-20T04:07:26;11.13;;;6.00;;
23410;SDS011;11878;51.774;7.220;2022-11-20T04:10:28;12.50;;;5.63;;
23410;SDS011;11878;51.774;7.220;2022-11-20T04:13:30;11.47;;;5.90;;
23410;SDS011;11878;51.774;7.220;2022-11-20T04:16:32;8.97;;;4.80;;
23410;SDS011;11878;51.774;7.220;2022-11-20T04:19:36;7.30;;;4.23;;
23410;SDS011;11878;51.774;7.220;2022-11-20T04:22:38;12.33;;;6.13;;
23410;SDS011;11878;51.774;7.220;2022-11-20T04:25:39;13.07;;;5.57;;
23410;SDS011;11878;51.774;7.220;2022-11-20T04:28:41;14.20;;;5.50;;
23410;SDS011;11878;51.774;7.220;2022-11-20T04:31:43;9.50;;;4.60;;
23410;SDS011;11878;51.774;7.220;2022-11-20T04:34:44;11.60;;;4.40;;
23410;SDS011;11878;51.774;7.220;2022-11-20T04:37:46;10.43;;;4.77;;
23410;SDS011;11878;51.774;7.220;2022-11-20T04:40:48;8.77;;;4.60;;
23410;SDS011;11878;51.774;7.220;2022-11-20T04:43:50;12.93;;;6.13;;
23410;SDS011;11878;51.774;7.220;2022-11-20T04:46:53;7.47;;;4.27;;
23410;SDS011;11878;51.774;7.220;2022-11-20T04:49:55;8.80;;;5.17;;
23410;SDS011;11878;51.774;7.220;2022-11-20T04:52:56;12.37;;;5.00;;
23410;SDS011;11878;51.774;7.220;2022-11-20T04:55:59;8.83;;;4.43;;
23410;SDS011;11878;51.774;7.220;2022-11-20T04:59:02;9.07;;;4.67;;
23410;SDS011;11878;51.774;7.220;2022-11-20T05:02:04;11.20;;;5.50;;
23410;SDS011;11878;51.774;7.220;2022-11-20T05:05:06;8.37;;;4.73;;
23410;SDS011;11878;51.774;7.220;2022-11-20T05:08:08;10.93;;;4.43;;
23410;SDS011;11878;51.774;7.220;2022-11-20T05:11:10;10.13;;;5.60;;
23410;SDS011;11878;51.774;7.220;2022-11-20T05:14:14;14.40;;;4.57;;
23410;SDS011;11878;51.774;7.220;2022-11-20T05:17:16;10.03;;;4.77;;
23410;SDS011;11878;51.774;7.220;2022-11-20T05:20:18;11.03;;;5.00;;
23410;SDS011;11878;51.774;7.220;2022-11-20T05:23:20;11.03;;;5.13;;
23410;SDS011;11878;51.774;7.220;2022-11-20T05:26:22;10.63;;;5.00;;
23410;SDS011;11878;51.774;7.220;2022-11-20T05:29:24;9.27;;;5.17;;
23410;SDS011;11878;51.774;7.220;2022-11-20T05:32:26;12.27;;;5.90;;
23410;SDS011;11878;51.774;7.220;2022-11-20T05:35:27;8.17;;;4.57;;
23410;SDS011;11878;51.774;7.220;2022-11-20T05:38:30;10.17;;;4.87;;
23410;SDS011;11878;51.774;7.220;2022-11-20T05:41:32;16.03;;;5.17;;
23410;SDS011;11878;51.774;7.220;2022-11-20T05:44:34;13.63;;;6.27;;
23410;SDS011;11878;51.774;7.220;2022-11-20T05:47:36;8.57;;;4.50;;
23410;SDS011;11878;51.774;7.220;2022-11-20T05:50:37;10.83;;;4.57;;
23410;SDS011;11878;51.774;7.220;2022-11-20T05:53:39;8.53;;;5.13;;
23410;SDS011;11878;51.774;7.220;2022-11-20T05:56:48;10.10;;;4.97;;
23410;SDS011;11878;51.774;7.220;2022-11-20T05:59:50;10.00;;;5.90;;
23410;SDS011;11878;51.774;7.220;2022-11-20T06:02:51;11.03;;;5.77;;
23410;SDS011;11878;51.774;7.220;2022-11-20T06:05:53;9.97;;;5.47;;
23410;SDS011;11878;51.774;7.220;2022-11-20T06:08:55;12.17;;;5.67;;
23410;SDS011;11878;51.774;7.220;2022-11-20T06:11:57;9.17;;;5.00;;
23410;SDS011;11878;51.774;7.220;2022-11-20T06:14:58;13.40;;;6.13;;
23410;SDS011;11878;51.774;7.220;2022-11-20T06:18:00;10.57;;;5.63;;
23410;SDS011;11878;51.774;7.220;2022-11-20T06:21:04;11.50;;;5.27;;
23410;SDS011;11878;51.774;7.220;2022-11-20T06:24:06;11.70;;;5.73;;
23410;SDS011;11878;51.774;7.220;2022-11-20T06:27:09;11.13;;;6.27;;
23410;SDS011;11878;51.774;7.220;2022-11-20T06:30:11;13.20;;;6.10;;
23410;SDS011;11878;51.774;7.220;2022-11-20T06:33:13;7.83;;;5.80;;
23410;SDS011;11878;51.774;7.220;2022-11-20T06:36:15;11.07;;;6.10;;
23410;SDS011;11878;51.774;7.220;2022-11-20T06:39:19;14.07;;;6.07;;
23410;SDS011;11878;51.774;7.220;2022-11-20T06:42:21;6.77;;;4.97;;
23410;SDS011;11878;51.774;7.220;2022-11-20T06:45:23;8.40;;;5.00;;
23410;SDS011;11878;51.774;7.220;2022-11-20T06:48:27;9.73;;;5.07;;
23410;SDS011;11878;51.774;7.220;2022-11-20T06:51:29;10.70;;;5.53;;
23410;SDS011;11878;51.774;7.220;2022-11-20T06:54:31;13.97;;;6.00;;
23410;SDS011;11878;51.774;7.220;2022-11-20T06:57:33;14.33;;;7.00;;
23410;SDS011;11878;51.774;7.220;2022-11-20T07:00:35;12.63;;;5.43;;
23410;SDS011;11878;51.774;7.220;2022-11-20T07:03:36;9.60;;;5.60;;
23410;SDS011;11878;51.774;7.220;2022-11-20T07:06:39;11.57;;;7.17;;
23410;SDS011;11878;51.774;7.220;2022-11-20T07:09:40;14.57;;;7.10;;
23410;SDS011;11878;51.774;7.220;2022-11-20T07:12:42;12.50;;;5.67;;
23410;SDS011;11878;51.774;7.220;2022-11-20T07:15:49;11.97;;;6.57;;
23410;SDS011;11878;51.774;7.220;2022-11-20T07:18:51;11.67;;;5.93;;
23410;SDS011;11878;51.774;7.220;2022-11-20T07:21:53;10.20;;;5.60;;
23410;SDS011;11878;51.774;7.220;2022-11-20T07:24:55;9.37;;;5.20;;
23410;SDS011;11878;51.774;7.220;2022-11-20T07:27:57;10.33;;;5.63;;
23410;SDS011;11878;51.774;7.220;2022-11-20T07:30:59;11.57;;;6.37;;
23410;SDS011;11878;51.774;7.220;2022-11-20T07:34:01;12.50;;;6.50;;
23410;SDS011;11878;51.774;7.220;2022-11-20T07:37:03;10.97;;;6.27;;
23410;SDS011;11878;51.774;7.220;2022-11-20T07:40:10;13.53;;;7.17;;
23410;SDS011;11878;51.774;7.220;2022-11-20T07:43:16;9.83;;;6.40;;
23410;SDS011;11878;51.774;7.220;2022-11-20T07:46:18;11.50;;;6.57;;
23410;SDS011;11878;51.774;7.220;2022-11-20T07:49:19;15.97;;;7.03;;
23410;SDS011;11878;51.774;7.220;2022-11-20T07:52:22;9.57;;;5.67;;
23410;SDS011;11878;51.774;7.220;2022-11-20T07:55:23;13.60;;;7.00;;
23410;SDS011;11878;51.774;7.220;2022-11-20T07:58:25;12.80;;;7.33;;
23410;SDS011;11878;51.774;7.220;2022-11-20T08:01:26;12.70;;;6.90;;
23410;SDS011;11878;51.774;7.220;2022-11-20T08:04:28;15.10;;;8.50;;
23410;SDS011;11878;51.774;7.220;2022-11-20T08:07:34;13.57;;;7.50;;
23410;SDS011;11878;51.774;7.220;2022-11-20T08:10:40;15.73;;;7.07;;
23410;SDS011;11878;51.774;7.220;2022-11-20T08:13:41;15.00;;;7.63;;
23410;SDS011;11878;51.774;7.220;2022-11-20T08:17:02;15.30;;;7.20;;
23410;SDS011;11878;51.774;7.220;2022-11-20T08:20:04;15.07;;;7.50;;
23410;SDS011;11878;51.774;7.220;2022-11-20T08:23:06;19.27;;;8.70;;
23410;SDS011;11878;51.774;7.220;2022-11-20T08:26:08;12.70;;;8.73;;
23410;SDS011;11878;51.774;7.220;2022-11-20T08:29:10;17.70;;;8.77;;
23410;SDS011;11878;51.774;7.220;2022-11-20T08:32:12;16.30;;;8.03;;
23410;SDS011;11878;51.774;7.220;2022-11-20T08:35:13;21.80;;;9.20;;
23410;SDS011;11878;51.774;7.220;2022-11-20T08:38:15;14.00;;;7.47;;
23410;SDS011;11878;51.774;7.220;2022-11-20T08:41:17;17.10;;;8.17;;
23410;SDS011;11878;51.774;7.220;2022-11-20T08:44:25;17.27;;;7.43;;
23410;SDS011;11878;51.774;7.220;2022-11-20T08:47:26;13.57;;;7.53;;
23410;SDS011;11878;51.774;7.220;2022-11-20T08:50:28;14.67;;;7.60;;
23410;SDS011;11878;51.774;7.220;2022-11-20T08:53:32;15.37;;;7.93;;
23410;SDS011;11878;51.774;7.220;2022-11-20T08:56:34;15.53;;;7.63;;
23410;SDS011;11878;51.774;7.220;2022-11-20T08:59:36;19.03;;;8.87;;
23410;SDS011;11878;51.774;7.220;2022-11-20T09:02:58;17.47;;;9.70;;
23410;SDS011;11878;51.774;7.220;2022-11-20T09:06:01;18.47;;;9.20;;
23410;SDS011;11878;51.774;7.220;2022-11-20T09:09:04;19.53;;;10.17;;
23410;SDS011;11878;51.774;7.220;2022-11-20T09:12:19;18.03;;;9.77;;
23410;SDS011;11878;51.774;7.220;2022-11-20T09:15:20;23.77;;;11.33;;
23410;SDS011;11878;51.774;7.220;2022-11-20T09:18:23;18.57;;;9.67;;
23410;SDS011;11878;51.774;7.220;2022-11-20T09:21:25;22.43;;;11.40;;
23410;SDS011;11878;51.774;7.220;2022-11-20T09:24:27;20.03;;;10.83;;
23410;SDS011;11878;51.774;7.220;2022-11-20T09:27:29;19.53;;;10.23;;
23410;SDS011;11878;51.774;7.220;2022-11-20T09:30:30;19.40;;;10.50;;
23410;SDS011;11878;51.774;7.220;2022-11-20T09:33:32;31.37;;;15.17;;
23410;SDS011;11878;51.774;7.220;2022-11-20T09:36:34;42.87;;;19.63;;
23410;SDS011;11878;51.774;7.220;2022-11-20T09:39:35;34.37;;;17.40;;
23410;SDS011;11878;51.774;7.220;2022-11-20T09:42:41;23.57;;;12.57;;
23410;SDS011;11878;51.774;7.220;2022-11-20T09:46:04;34.53;;;16.43;;
23410;SDS011;11878;51.774;7.220;2022-11-20T09:49:28;37.30;;;20.67;;
23410;SDS011;11878;51.774;7.220;2022-11-20T09:56:33;23.67;;;13.03;;
23410;SDS011;11878;51.774;7.220;2022-11-20T10:06:29;29.10;;;16.83;;
23410;SDS011;11878;51.774;7.220;2022-11-20T10:09:37;28.10;;;12.90;;
23410;SDS011;11878;51.774;7.220;2022-11-20T10:13:00;23.03;;;12.37;;
23410;SDS011;11878;51.774;7.220;2022-11-20T10:16:42;25.30;;;11.93;;
23410;SDS011;11878;51.774;7.220;2022-11-20T10:26:29;23.57;;;12.33;;
23410;SDS011;11878;51.774;7.220;2022-11-20T10:30:02;20.23;;;11.30;;
23410;SDS011;11878;51.774;7.220;2022-11-20T10:33:21;19.87;;;11.13;;
23410;SDS011;11878;51.774;7.220;2022-11-20T10:36:29;29.63;;;14.73;;
23410;SDS011;11878;51.774;7.220;2022-11-20T10:42:56;28.07;;;14.23;;
23410;SDS011;11878;51.774;7.220;2022-11-20T10:46:12;24.77;;;13.53;;
23410;SDS011;11878;51.774;7.220;2022-11-20T10:49:18;26.03;;;12.43;;
23410;SDS011;11878;51.774;7.220;2022-11-20T10:55:50;29.87;;;15.20;;
23410;SDS011;11878;51.774;7.220;2022-11-20T11:02:33;18.00;;;11.90;;
23410;SDS011;11878;51.774;7.220;2022-11-20T11:05:53;28.33;;;12.47;;
23410;SDS011;11878;51.774;7.220;2022-11-20T11:09:08;24.03;;;12.57;;
23410;SDS011;11878;51.774;7.220;2022-11-20T11:12:16;25.43;;;13.70;;
23410;SDS011;11878;51.774;7.220;2022-11-20T11:15:28;21.90;;;11.97;;
23410;SDS011;11878;51.774;7.220;2022-11-20T11:18:31;26.90;;;11.27;;
23410;SDS011;11878;51.774;7.220;2022-11-20T11:21:35;18.33;;;10.50;;
23410;SDS011;11878;51.774;7.220;2022-11-20T11:24:43;22.67;;;11.27;;
23410;SDS011;11878;51.774;7.220;2022-11-20T11:27:54;22.17;;;11.37;;
23410;SDS011;11878;51.774;7.220;2022-11-20T11:30:59;17.50;;;10.53;;
23410;SDS011;11878;51.774;7.220;2022-11-20T11:34:05;19.47;;;10.57;;
23410;SDS011;11878;51.774;7.220;2022-11-20T11:37:18;21.20;;;11.60;;
23410;SDS011;11878;51.774;7.220;2022-11-20T11:40:22;21.00;;;11.17;;
23410;SDS011;11878;51.774;7.220;2022-11-20T11:43:26;17.07;;;10.07;;
23410;SDS011;11878;51.774;7.220;2022-11-20T11:46:58;20.97;;;10.63;;
23410;SDS011;11878;51.774;7.220;2022-11-20T11:50:21;20.40;;;11.10;;
23410;SDS011;11878;51.774;7.220;2022-11-20T11:53:29;20.13;;;11.20;;
23410;SDS011;11878;51.774;7.220;2022-11-20T11:56:31;21.83;;;11.37;;
23410;SDS011;11878;51.774;7.220;2022-11-20T11:59:47;22.73;;;11.23;;
23410;SDS011;11878;51.774;7.220;2022-11-20T12:03:15;20.60;;;10.77;;
23410;SDS011;11878;51.774;7.220;2022-11-20T12:06:37;22.07;;;11.77;;
23410;SDS011;11878;51.774;7.220;2022-11-20T12:09:46;25.27;;;11.73;;
23410;SDS011;11878;51.774;7.220;2022-11-20T12:16:35;21.40;;;11.03;;
23410;SDS011;11878;51.774;7.220;2022-11-20T12:19:38;17.37;;;10.07;;
23410;SDS011;11878;51.774;7.220;2022-11-20T12:22:44;20.27;;;11.60;;
23410;SDS011;11878;51.774;7.220;2022-11-20T12:26:10;27.13;;;11.10;;
23410;SDS011;11878;51.774;7.220;2022-11-20T12:36:45;23.53;;;11.43;;
23410;SDS011;11878;51.774;7.220;2022-11-20T12:40:12;21.37;;;12.00;;
23410;SDS011;11878;51.774;7.220;2022-11-20T12:43:32;20.57;;;11.30;;
23410;SDS011;11878;51.774;7.220;2022-11-20T12:47:15;22.23;;;11.53;;
23410;SDS011;11878;51.774;7.220;2022-11-20T12:50:46;21.03;;;10.70;;
23410;SDS011;11878;51.774;7.220;2022-11-20T12:54:19;22.93;;;10.80;;
23410;SDS011;11878;51.774;7.220;2022-11-20T12:57:45;24.03;;;11.87;;
23410;SDS011;11878;51.774;7.220;2022-11-20T13:00:55;22.40;;;10.30;;
23410;SDS011;11878;51.774;7.220;2022-11-20T13:07:31;22.70;;;11.50;;
23410;SDS011;11878;51.774;7.220;2022-11-20T13:10:41;24.07;;;11.43;;
23410;SDS011;11878;51.774;7.220;2022-11-20T13:14:00;22.67;;;12.20;;
23410;SDS011;11878;51.774;7.220;2022-11-20T13:17:24;21.50;;;11.37;;
23410;SDS011;11878;51.774;7.220;2022-11-20T13:20:34;23.90;;;11.70;;
23410;SDS011;11878;51.774;7.220;2022-11-20T13:23:41;20.57;;;10.73;;
23410;SDS011;11878;51.774;7.220;2022-11-20T13:26:43;25.80;;;11.43;;
23410;SDS011;11878;51.774;7.220;2022-11-20T13:29:46;21.97;;;11.53;;
23410;SDS011;11878;51.774;7.220;2022-11-20T13:33:06;20.53;;;9.93;;
23410;SDS011;11878;51.774;7.220;2022-11-20T13:36:21;21.27;;;10.23;;
23410;SDS011;11878;51.774;7.220;2022-11-20T13:39:26;20.37;;;10.90;;
23410;SDS011;11878;51.774;7.220;2022-11-20T13:42:29;20.77;;;10.93;;
23410;SDS011;11878;51.774;7.220;2022-11-20T13:45:31;30.87;;;17.43;;
23410;SDS011;11878;51.774;7.220;2022-11-20T13:48:34;24.03;;;13.87;;
23410;SDS011;11878;51.774;7.220;2022-11-20T13:51:45;23.00;;;12.23;;
23410;SDS011;11878;51.774;7.220;2022-11-20T14:01:36;21.33;;;10.97;;
23410;SDS011;11878;51.774;7.220;2022-11-20T14:04:41;22.27;;;11.23;;
23410;SDS011;11878;51.774;7.220;2022-11-20T14:07:45;24.50;;;12.73;;
23410;SDS011;11878;51.774;7.220;2022-11-20T14:10:48;18.30;;;9.90;;
23410;SDS011;11878;51.774;7.220;2022-11-20T14:14:03;19.00;;;10.00;;
23410;SDS011;11878;51.774;7.220;2022-11-20T14:20:34;22.93;;;10.40;;
23410;SDS011;11878;51.774;7.220;2022-11-20T14:23:38;21.37;;;11.37;;
23410;SDS011;11878;51.774;7.220;2022-11-20T14:26:43;21.50;;;10.90;;
23410;SDS011;11878;51.774;7.220;2022-11-20T14:29:46;22.53;;;10.40;;
23410;SDS011;11878;51.774;7.220;2022-11-20T14:32:50;20.23;;;10.90;;
23410;SDS011;11878;51.774;7.220;2022-11-20T14:35:55;21.77;;;10.73;;
23410;SDS011;11878;51.774;7.220;2022-11-20T14:38:58;19.53;;;10.77;;
23410;SDS011;11878;51.774;7.220;2022-11-20T14:42:00;21.90;;;11.83;;
23410;SDS011;11878;51.774;7.220;2022-11-20T14:45:02;26.57;;;10.73;;
23410;SDS011;11878;51.774;7.220;2022-11-20T14:48:04;21.40;;;9.77;;
23410;SDS011;11878;51.774;7.220;2022-11-20T14:51:08;31.27;;;12.63;;
23410;SDS011;11878;51.774;7.220;2022-11-20T14:54:15;21.33;;;11.70;;
23410;SDS011;11878;51.774;7.220;2022-11-20T14:57:25;27.57;;;13.37;;
23410;SDS011;11878;51.774;7.220;2022-11-20T15:00:28;22.23;;;11.53;;
23410;SDS011;11878;51.774;7.220;2022-11-20T15:03:34;24.77;;;13.20;;
23410;SDS011;11878;51.774;7.220;2022-11-20T15:06:38;25.20;;;11.30;;
23410;SDS011;11878;51.774;7.220;2022-11-20T15:09:59;26.77;;;10.80;;
23410;SDS011;11878;51.774;7.220;2022-11-20T15:13:03;24.37;;;12.20;;
23410;SDS011;11878;51.774;7.220;2022-11-20T15:16:15;25.23;;;11.57;;
23410;SDS011;11878;51.774;7.220;2022-11-20T15:19:24;27.67;;;11.40;;
23410;SDS011;11878;51.774;7.220;2022-11-20T15:22:27;26.03;;;12.57;;
23410;SDS011;11878;51.774;7.220;2022-11-20T15:25:28;25.33;;;12.00;;
23410;SDS011;11878;51.774;7.220;2022-11-20T15:31:38;29.30;;;13.50;;
23410;SDS011;11878;51.774;7.220;2022-11-20T15:34:45;26.27;;;13.07;;
23410;SDS011;11878;51.774;7.220;2022-11-20T15:37:47;28.73;;;13.40;;
23410;SDS011;11878;51.774;7.220;2022-11-20T15:40:49;26.53;;;13.10;;
23410;SDS011;11878;51.774;7.220;2022-11-20T15:43:50;24.47;;;12.07;;
23410;SDS011;11878;51.774;7.220;2022-11-20T15:46:52;25.13;;;12.67;;
23410;SDS011;11878;51.774;7.220;2022-11-20T15:49:54;33.80;;;14.50;;
23410;SDS011;11878;51.774;7.220;2022-11-20T15:52:55;28.20;;;13.20;;
23410;SDS011;11878;51.774;7.220;2022-11-20T15:55:57;32.93;;;14.77;;
23410;SDS011;11878;51.774;7.220;2022-11-20T15:58:59;32.63;;;15.60;;
23410;SDS011;11878;51.774;7.220;2022-11-20T16:02:00;26.07;;;13.80;;
23410;SDS011;11878;51.774;7.220;2022-11-20T16:05:02;25.37;;;13.20;;
23410;SDS011;11878;51.774;7.220;2022-11-20T16:08:04;28.37;;;13.33;;
23410;SDS011;11878;51.774;7.220;2022-11-20T16:11:12;25.50;;;13.40;;
23410;SDS011;11878;51.774;7.220;2022-11-20T16:14:16;30.73;;;15.17;;
23410;SDS011;11878;51.774;7.220;2022-11-20T16:17:36;32.23;;;14.43;;
23410;SDS011;11878;51.774;7.220;2022-11-20T16:20:45;32.60;;;16.83;;
23410;SDS011;11878;51.774;7.220;2022-11-20T16:23:48;26.20;;;13.03;;
23410;SDS011;11878;51.774;7.220;2022-11-20T16:26:50;32.70;;;14.47;;
23410;SDS011;11878;51.774;7.220;2022-11-20T16:29:53;26.90;;;13.03;;
23410;SDS011;11878;51.774;7.220;2022-11-20T16:32:55;29.90;;;12.17;;
23410;SDS011;11878;51.774;7.220;2022-11-20T16:35:57;22.50;;;11.27;;
23410;SDS011;11878;51.774;7.220;2022-11-20T16:38:59;28.97;;;13.50;;
23410;SDS011;11878;51.774;7.220;2022-11-20T16:42:05;27.10;;;12.87;;
23410;SDS011;11878;51.774;7.220;2022-11-20T16:45:07;26.83;;;12.80;;
23410;SDS011;11878;51.774;7.220;2022-11-20T16:48:11;29.67;;;13.47;;
23410;SDS011;11878;51.774;7.220;2022-11-20T16:51:13;24.40;;;11.57;;
23410;SDS011;11878;51.774;7.220;2022-11-20T16:54:15;27.13;;;12.93;;
23410;SDS011;11878;51.774;7.220;2022-11-20T16:57:21;31.00;;;13.87;;
23410;SDS011;11878;51.774;7.220;2022-11-20T17:00:23;28.07;;;13.23;;
23410;SDS011;11878;51.774;7.220;2022-11-20T17:03:25;25.60;;;13.47;;
23410;SDS011;11878;51.774;7.220;2022-11-20T17:06:28;23.67;;;11.87;;
23410;SDS011;11878;51.774;7.220;2022-11-20T17:09:32;23.47;;;11.90;;
23410;SDS011;11878;51.774;7.220;2022-11-20T17:12:35;27.70;;;13.53;;
23410;SDS011;11878;51.774;7.220;2022-11-20T17:15:37;23.87;;;11.50;;
23410;SDS011;11878;51.774;7.220;2022-11-20T17:18:39;27.97;;;13.10;;
23410;SDS011;11878;51.774;7.220;2022-11-20T17:21:41;27.53;;;12.87;;
23410;SDS011;11878;51.774;7.220;2022-11-20T17:24:42;28.17;;;12.97;;
23410;SDS011;11878;51.774;7.220;2022-11-20T17:27:44;25.27;;;12.60;;
23410;SDS011;11878;51.774;7.220;2022-11-20T17:30:46;23.77;;;11.47;;
23410;SDS011;11878;51.774;7.220;2022-11-20T17:33:47;23.83;;;11.93;;
23410;SDS011;11878;51.774;7.220;2022-11-20T17:36:49;32.60;;;13.47;;
23410;SDS011;11878;51.774;7.220;2022-11-20T17:39:51;27.20;;;13.07;;
23410;SDS011;11878;51.774;7.220;2022-11-20T17:42:53;23.83;;;11.37;;
23410;SDS011;11878;51.774;7.220;2022-11-20T17:45:54;24.47;;;12.53;;
23410;SDS011;11878;51.774;7.220;2022-11-20T17:48:56;27.27;;;13.73;;
23410;SDS011;11878;51.774;7.220;2022-11-20T17:51:58;26.60;;;13.50;;
23410;SDS011;11878;51.774;7.220;2022-11-20T17:55:00;25.13;;;11.80;;
23410;SDS011;11878;51.774;7.220;2022-11-20T17:58:01;27.43;;;13.53;;
23410;SDS011;11878;51.774;7.220;2022-11-20T18:01:06;29.47;;;14.43;;
23410;SDS011;11878;51.774;7.220;2022-11-20T18:04:09;28.43;;;14.57;;
23410;SDS011;11878;51.774;7.220;2022-11-20T18:07:11;23.63;;;12.00;;
23410;SDS011;11878;51.774;7.220;2022-11-20T18:10:13;27.40;;;12.30;;
23410;SDS011;11878;51.774;7.220;2022-11-20T18:13:15;28.33;;;13.60;;
23410;SDS011;11878;51.774;7.220;2022-11-20T18:16:16;30.43;;;13.63;;
23410;SDS011;11878;51.774;7.220;2022-11-20T18:19:19;25.60;;;13.60;;
23410;SDS011;11878;51.774;7.220;2022-11-20T18:22:23;31.97;;;14.37;;
23410;SDS011;11878;51.774;7.220;2022-11-20T18:25:24;27.53;;;14.07;;
23410;SDS011;11878;51.774;7.220;2022-11-20T18:28:26;28.00;;;13.90;;
23410;SDS011;11878;51.774;7.220;2022-11-20T18:31:28;34.30;;;13.67;;
23410;SDS011;11878;51.774;7.220;2022-11-20T18:34:30;28.20;;;13.80;;
23410;SDS011;11878;51.774;7.220;2022-11-20T18:37:32;29.67;;;13.50;;
23410;SDS011;11878;51.774;7.220;2022-11-20T18:40:34;31.57;;;12.67;;
23410;SDS011;11878;51.774;7.220;2022-11-20T18:43:36;31.30;;;12.73;;
23410;SDS011;11878;51.774;7.220;2022-11-20T18:46:57;28.37;;;13.37;;
23410;SDS011;11878;51.774;7.220;2022-11-20T18:49:59;28.17;;;13.37;;
23410;SDS011;11878;51.774;7.220;2022-11-20T18:53:01;29.07;;;13.50;;
23410;SDS011;11878;51.774;7.220;2022-11-20T18:56:03;20.97;;;11.07;;
23410;SDS011;11878;51.774;7.220;2022-11-20T18:59:07;26.50;;;12.50;;
23410;SDS011;11878;51.774;7.220;2022-11-20T19:02:14;25.37;;;12.93;;
23410;SDS011;11878;51.774;7.220;2022-11-20T19:05:17;28.17;;;13.63;;
23410;SDS011;11878;51.774;7.220;2022-11-20T19:08:19;28.27;;;12.37;;
23410;SDS011;11878;51.774;7.220;2022-11-20T19:11:20;27.37;;;13.57;;